createdAt,value
2024-01-22T05:53:03.623Z,-2.12
2024-01-22T05:54:09.772Z,-2.12
2024-01-22T05:55:12.493Z,-2.11
2024-01-22T05:56:26.696Z,-2.12
2024-01-22T05:57:29.152Z,-2.14
2024-01-22T05:58:31.505Z,-2.17
2024-01-22T05:59:34.084Z,-2.18
2024-01-22T06:00:38.436Z,-2.15
2024-01-22T06:01:41.151Z,-2.14
2024-01-22T06:02:44.350Z,-2.11
2024-01-22T06:03:47.256Z,-2.10
2024-01-22T06:04:49.744Z,-2.08
2024-01-22T06:05:52.366Z,-2.09
2024-01-22T06:06:54.934Z,-2.09
2024-01-22T06:07:57.787Z,-2.09
2024-01-22T06:09:00.350Z,-2.08
2024-01-22T06:10:08.454Z,-2.09
2024-01-22T06:11:08.255Z,-2.08
2024-01-22T06:12:11.954Z,-2.07
2024-01-22T06:13:14.520Z,-2.05
2024-01-22T06:14:16.985Z,-2.00
2024-01-22T06:15:19.526Z,-1.98
2024-01-22T06:16:22.119Z,-1.94
2024-01-22T06:17:25.034Z,-1.95
2024-01-22T06:18:27.655Z,-1.93
2024-01-22T06:19:30.174Z,-1.93
2024-01-22T06:20:32.587Z,-1.92
2024-01-22T06:21:35.244Z,-1.89
2024-01-22T06:22:37.960Z,-1.90
2024-01-22T06:23:40.781Z,-1.86
2024-01-22T06:24:43.378Z,-1.88
2024-01-22T06:25:45.954Z,-1.87
2024-01-22T06:26:48.912Z,-1.88
2024-01-22T06:27:51.271Z,-1.89
2024-01-22T06:28:53.739Z,-1.88
2024-01-22T06:29:56.535Z,-1.86
2024-01-22T06:30:59.289Z,-1.91
2024-01-22T06:32:02.327Z,-1.91
2024-01-22T06:33:05.383Z,-1.91
2024-01-22T06:34:08.176Z,-1.90
2024-01-22T06:35:10.816Z,-1.92
2024-01-22T06:36:13.772Z,-1.93
2024-01-22T06:37:16.387Z,-1.92
2024-01-22T06:38:18.918Z,-1.92
2024-01-22T06:39:21.497Z,-1.89
2024-01-22T06:40:24.042Z,-1.88
2024-01-22T06:41:26.622Z,-1.90
2024-01-22T06:42:37.560Z,-1.87
2024-01-22T06:43:35.459Z,-1.87
2024-01-22T06:44:38.051Z,-1.87
2024-01-22T06:45:40.711Z,-1.88
2024-01-22T06:46:43.337Z,-1.89
2024-01-22T06:47:45.925Z,-1.89
2024-01-22T06:48:48.836Z,-1.87
2024-01-22T06:49:51.422Z,-1.83
2024-01-22T06:50:54.014Z,-1.80
2024-01-22T06:51:56.482Z,-1.76
2024-01-22T06:52:59.048Z,-1.74
2024-01-22T06:54:01.578Z,-1.73
2024-01-22T06:55:05.642Z,-1.73
2024-01-22T06:56:08.265Z,-1.74
2024-01-22T06:57:10.620Z,-1.76
2024-01-22T06:58:12.983Z,-1.78
2024-01-22T06:59:28.364Z,-1.78
2024-01-22T07:00:30.777Z,-1.78
2024-01-22T07:01:33.281Z,-1.76
2024-01-22T07:02:36.181Z,-1.74
2024-01-22T07:03:38.694Z,-1.72
2024-01-22T07:04:41.288Z,-1.73
2024-01-22T07:05:43.929Z,-1.73
2024-01-22T07:06:46.689Z,-1.74
2024-01-22T07:07:49.090Z,-1.74
2024-01-22T07:08:51.367Z,-1.74
2024-01-22T07:09:54.324Z,-1.74
2024-01-22T07:10:56.996Z,-1.75
2024-01-22T07:11:59.521Z,-1.74
2024-01-22T07:13:02.030Z,-1.73
2024-01-22T07:14:04.497Z,-1.71
2024-01-22T07:15:07.322Z,-1.69
2024-01-22T07:16:09.893Z,-1.68
2024-01-22T07:17:15.063Z,-1.66
2024-01-22T07:18:19.328Z,-1.62
2024-01-22T07:19:22.019Z,-1.61
2024-01-22T07:20:26.664Z,-1.61
2024-01-22T07:21:29.278Z,-1.59
2024-01-22T07:22:31.718Z,-1.58
2024-01-22T07:23:34.355Z,-1.57
2024-01-22T07:24:37.461Z,-1.53
2024-01-22T07:25:40.021Z,-1.48
2024-01-22T07:26:42.535Z,-1.44
2024-01-22T07:27:44.945Z,-1.41
2024-01-22T07:28:49.908Z,-1.39
2024-01-22T07:29:52.754Z,-1.39
2024-01-22T07:30:55.608Z,-1.35
2024-01-22T07:31:58.291Z,-1.32
2024-01-22T07:33:00.947Z,-1.30
2024-01-22T07:34:03.808Z,-1.27
2024-01-22T07:35:08.334Z,-1.28
2024-01-22T07:36:12.576Z,-1.26
2024-01-22T07:37:15.286Z,-1.25
2024-01-22T07:38:17.601Z,-1.22
2024-01-22T07:39:20.471Z,-1.21
2024-01-22T07:40:44.235Z,-1.17
2024-01-22T07:41:47.728Z,-1.14
2024-01-22T07:42:50.572Z,-1.09
2024-01-22T07:43:53.032Z,-1.04
2024-01-22T07:44:55.675Z,-1.00
2024-01-22T07:45:58.285Z,-0.96
2024-01-22T07:47:00.736Z,-0.93
2024-01-22T07:48:03.859Z,-0.89
2024-01-22T07:49:06.827Z,-0.90
2024-01-22T07:50:10.385Z,-0.89
2024-01-22T07:51:12.862Z,-0.86
2024-01-22T07:52:15.436Z,-0.84
2024-01-22T07:53:18.351Z,-0.82
2024-01-22T07:54:20.991Z,-0.84
2024-01-22T07:55:23.674Z,-0.82
2024-01-22T07:56:26.408Z,-0.80
2024-01-22T07:57:29.718Z,-0.78
2024-01-22T07:58:32.174Z,-0.75
2024-01-22T07:59:34.610Z,-0.73
2024-01-22T08:00:37.233Z,-0.74
2024-01-22T08:01:39.504Z,-0.75
2024-01-22T08:02:42.872Z,-0.73
2024-01-22T08:03:45.312Z,-0.74
2024-01-22T08:04:47.863Z,-0.72
2024-01-22T08:05:50.500Z,-0.73
2024-01-22T08:06:53.025Z,-0.71
2024-01-22T08:07:58.533Z,-0.67
2024-01-22T08:09:01.271Z,-0.64
2024-01-22T08:10:04.732Z,-0.64
2024-01-22T08:11:07.153Z,-0.62
2024-01-22T08:12:09.775Z,-0.57
2024-01-22T08:13:12.382Z,-0.57
2024-01-22T08:14:15.233Z,-0.57
2024-01-22T08:15:18.063Z,-0.54
2024-01-22T08:16:20.703Z,-0.54
2024-01-22T08:17:23.684Z,-0.55
2024-01-22T08:18:26.424Z,-0.50
2024-01-22T08:19:29.288Z,-0.50
2024-01-22T08:20:33.264Z,-0.49
2024-01-22T08:21:36.299Z,-0.51
2024-01-22T08:22:38.873Z,-0.51
2024-01-22T08:23:41.361Z,-0.50
2024-01-22T08:24:43.798Z,-0.44
2024-01-22T08:25:46.476Z,-0.40
2024-01-22T08:26:49.383Z,-0.39
2024-01-22T08:27:53.876Z,-0.41
2024-01-22T08:28:56.318Z,-0.42
2024-01-22T08:29:58.706Z,-0.41
2024-01-22T08:31:01.156Z,-0.37
2024-01-22T08:32:06.844Z,-0.33
2024-01-22T08:33:08.998Z,-0.35
2024-01-22T08:34:11.852Z,-0.36
2024-01-22T08:35:15.346Z,-0.41
2024-01-22T08:36:18.013Z,-0.48
2024-01-22T08:37:20.451Z,-0.50
2024-01-22T08:38:23.145Z,-0.50
2024-01-22T08:39:25.510Z,-0.48
2024-01-22T08:40:28.012Z,-0.50
2024-01-22T08:41:31.223Z,-0.54
2024-01-22T08:42:33.891Z,-0.56
2024-01-22T08:43:36.371Z,-0.60
2024-01-22T08:44:39.009Z,-0.65
2024-01-22T08:45:41.594Z,-0.71
2024-01-22T08:46:44.012Z,-0.74
2024-01-22T08:47:48.180Z,-0.78
2024-01-22T08:48:50.680Z,-0.80
2024-01-22T08:49:53.229Z,-0.87
2024-01-22T08:50:56.065Z,-0.91
2024-01-22T08:51:58.425Z,-0.91
2024-01-22T08:53:00.787Z,-0.88
2024-01-22T08:54:03.304Z,-0.84
2024-01-22T08:55:06.222Z,-0.86
2024-01-22T08:56:09.217Z,-0.84
2024-01-22T08:57:24.825Z,-0.82
2024-01-22T08:58:27.241Z,-0.84
2024-01-22T08:59:29.815Z,-0.83
2024-01-22T09:00:32.468Z,-0.84
2024-01-22T09:01:35.265Z,-0.85
2024-01-22T09:02:44.463Z,-0.85
2024-01-22T09:03:48.984Z,-0.84
2024-01-22T09:04:52.186Z,-0.80
2024-01-22T09:05:54.919Z,-0.82
2024-01-22T09:06:59.327Z,-0.79
2024-01-22T09:08:01.828Z,-0.80
2024-01-22T09:09:04.760Z,-0.80
2024-01-22T09:10:08.973Z,-0.80
2024-01-22T09:11:11.790Z,-0.83
2024-01-22T09:12:14.583Z,-0.85
2024-01-22T09:13:17.616Z,-0.86
2024-01-22T09:14:22.291Z,-0.88
2024-01-22T09:15:25.716Z,-0.87
2024-01-22T09:16:29.185Z,-0.87
2024-01-22T09:17:33.279Z,-0.85
2024-01-22T09:18:37.066Z,-0.86
2024-01-22T09:19:40.322Z,-0.86
2024-01-22T09:20:43.217Z,-0.86
2024-01-22T09:21:45.994Z,-0.88
2024-01-22T09:22:51.555Z,-0.89
2024-01-22T09:23:54.279Z,-0.89
2024-01-22T09:24:57.131Z,-0.87
2024-01-22T09:25:59.801Z,-0.86
2024-01-22T09:27:02.383Z,-0.87
2024-01-22T09:28:05.382Z,-0.82
2024-01-22T09:29:07.703Z,-0.78
2024-01-22T09:30:11.028Z,-0.73
2024-01-22T09:31:13.757Z,-0.68
2024-01-22T09:32:16.285Z,-0.65
2024-01-22T09:33:18.703Z,-0.63
2024-01-22T09:34:21.414Z,-0.64
2024-01-22T09:35:24.387Z,-0.63
2024-01-22T09:36:27.742Z,-0.63
2024-01-22T09:37:30.384Z,-0.62
2024-01-22T09:38:32.841Z,-0.58
2024-01-22T09:39:35.624Z,-0.53
2024-01-22T09:40:38.206Z,-0.52
2024-01-22T09:41:41.489Z,-0.50
2024-01-22T09:42:44.390Z,-0.48
2024-01-22T09:43:47.152Z,-0.48
2024-01-22T09:44:50.551Z,-0.47
2024-01-22T09:45:53.607Z,-0.42
2024-01-22T09:46:56.156Z,-0.36
2024-01-22T09:47:58.598Z,-0.32
2024-01-22T09:49:01.477Z,-0.26
2024-01-22T09:50:05.046Z,-0.26
2024-01-22T09:51:07.727Z,-0.24
2024-01-22T09:52:14.102Z,-0.26
2024-01-22T09:53:17.526Z,-0.25
2024-01-22T09:54:20.951Z,-0.28
2024-01-22T09:55:23.603Z,-0.32
2024-01-22T09:56:27.549Z,-0.35
2024-01-22T09:57:30.439Z,-0.39
2024-01-22T09:58:35.347Z,-0.40
2024-01-22T09:59:38.420Z,-0.42
2024-01-22T10:00:42.536Z,-0.45
2024-01-22T10:01:50.714Z,-0.51
2024-01-22T10:02:53.755Z,-0.61
2024-01-22T10:03:56.420Z,-0.61
2024-01-22T10:04:59.257Z,-0.65
2024-01-22T10:06:01.950Z,-0.68
2024-01-22T10:07:05.371Z,-0.67
2024-01-22T10:08:08.077Z,-0.68
2024-01-22T10:09:11.288Z,-0.73
2024-01-22T10:10:16.530Z,-0.82
2024-01-22T10:11:18.645Z,-0.83
2024-01-22T10:12:21.293Z,-0.81
2024-01-22T10:13:24.045Z,-0.81
2024-01-22T10:14:30.643Z,-0.82
2024-01-22T10:15:34.359Z,-0.80
2024-01-22T10:16:37.722Z,-0.77
2024-01-22T10:17:40.313Z,-0.75
2024-01-22T10:18:49.224Z,-0.71
2024-01-22T10:20:01.682Z,-0.69
2024-01-22T10:21:04.593Z,-0.69
2024-01-22T10:22:08.788Z,-0.76
2024-01-22T10:23:12.225Z,-0.79
2024-01-22T10:24:14.850Z,-0.76
2024-01-22T10:25:17.961Z,-0.78
2024-01-22T10:26:22.739Z,-0.79
2024-01-22T10:27:25.286Z,-0.83
2024-01-22T10:28:27.875Z,-0.83
2024-01-22T10:29:30.432Z,-0.82
2024-01-22T10:30:33.289Z,-0.80
2024-01-22T10:33:10.459Z,-0.69
2024-01-22T10:34:13.216Z,-0.84
2024-01-22T10:35:23.173Z,-0.86
2024-01-22T10:36:25.959Z,-0.86
2024-01-22T10:37:28.506Z,-0.84
2024-01-22T10:38:30.795Z,-0.84
2024-01-22T10:39:37.590Z,-0.80
2024-01-22T10:40:40.952Z,-0.74
2024-01-22T10:41:43.776Z,-0.71
2024-01-22T10:42:46.421Z,-0.69
2024-01-22T10:43:49.351Z,-0.68
2024-01-22T10:44:52.512Z,-0.67
2024-01-22T10:45:56.564Z,-0.66
2024-01-22T10:47:00.867Z,-0.63
2024-01-22T10:48:10.417Z,-0.62
2024-01-22T10:49:08.347Z,-0.63
2024-01-22T10:50:11.394Z,-0.65
2024-01-22T10:51:14.748Z,-0.67
2024-01-22T10:52:19.849Z,-0.67
2024-01-22T10:53:22.531Z,-0.66
2024-01-22T10:54:25.332Z,-0.68
2024-01-22T10:55:28.528Z,-0.69
2024-01-22T10:56:33.154Z,-0.69
2024-01-22T10:57:40.680Z,-0.71
2024-01-22T10:58:44.261Z,-0.66
2024-01-22T10:59:47.978Z,-0.58
2024-01-22T11:00:51.586Z,-0.53
2024-01-22T11:01:54.745Z,-0.54
2024-01-22T11:02:58.658Z,-0.57
2024-01-22T11:04:01.585Z,-0.64
2024-01-22T11:06:24.038Z,-0.67
2024-01-22T11:07:28.502Z,-0.79
2024-01-22T11:08:32.652Z,-0.80
2024-01-22T11:09:35.663Z,-0.84
2024-01-22T11:10:40.574Z,-0.86
2024-01-22T11:11:43.323Z,-0.86
2024-01-22T11:12:52.468Z,-0.85
2024-01-22T11:15:06.335Z,-0.71
2024-01-22T11:16:09.882Z,-0.86
2024-01-22T11:17:13.166Z,-0.86
2024-01-22T11:18:15.919Z,-0.86
2024-01-22T11:19:22.242Z,-0.83
2024-01-22T11:20:25.683Z,-0.82
2024-01-22T11:21:36.951Z,-0.83
2024-01-22T11:22:42.482Z,-0.81
2024-01-22T11:23:51.734Z,-0.77
2024-01-22T11:25:05.782Z,-0.84
2024-01-22T11:26:10.878Z,-0.89
2024-01-22T11:27:13.668Z,-0.95
2024-01-22T11:28:16.316Z,-0.98
2024-01-22T11:29:26.713Z,-0.96
2024-01-22T11:32:39.198Z,-0.90
2024-01-22T11:33:49.922Z,-1.03
2024-01-22T11:34:55.378Z,-0.97
2024-01-22T11:35:57.977Z,-0.90
2024-01-22T11:37:01.126Z,-0.87
2024-01-22T11:38:04.827Z,-0.90
2024-01-22T11:39:07.715Z,-0.91
2024-01-22T11:40:11.040Z,-0.96
2024-01-22T11:41:17.371Z,-0.98
2024-01-22T11:42:23.956Z,-1.00
2024-01-22T11:43:27.169Z,-1.05
2024-01-22T11:44:29.427Z,-1.08
2024-01-22T11:45:36.728Z,-1.14
2024-01-22T11:46:36.202Z,-1.17
2024-01-22T11:47:38.970Z,-1.20
2024-01-22T11:48:41.563Z,-1.23
2024-01-22T11:49:44.893Z,-1.29
2024-01-22T11:51:02.433Z,-1.33
2024-01-22T11:52:12.494Z,-1.32
2024-01-22T11:53:15.052Z,-1.33
2024-01-22T11:54:17.730Z,-1.37
2024-01-22T11:55:20.536Z,-1.40
2024-01-22T11:56:24.086Z,-1.39
2024-01-22T11:57:29.131Z,-1.41
2024-01-22T11:58:33.525Z,-1.42
2024-01-22T11:59:39.155Z,-1.44
2024-01-22T12:00:42.076Z,-1.43
2024-01-22T12:01:46.450Z,-1.44
2024-01-22T12:02:50.961Z,-1.46
2024-01-22T12:03:53.696Z,-1.46
2024-01-22T12:05:00.742Z,-1.46
2024-01-22T12:06:08.050Z,-1.43
2024-01-22T12:07:10.701Z,-1.49
2024-01-22T12:08:13.578Z,-1.51
2024-01-22T12:09:16.919Z,-1.51
2024-01-22T12:10:29.101Z,-1.51
2024-01-22T12:11:35.514Z,-1.53
2024-01-22T12:12:38.634Z,-1.58
2024-01-22T12:13:43.968Z,-1.60
2024-01-22T12:16:14.289Z,-1.53
2024-01-22T12:17:17.265Z,-1.67
2024-01-22T12:18:23.885Z,-1.69
2024-01-22T12:19:26.457Z,-1.67
2024-01-22T12:20:29.368Z,-1.69
2024-01-22T12:21:32.069Z,-1.67
2024-01-22T12:22:34.486Z,-1.67
2024-01-22T12:23:37.172Z,-1.67
2024-01-22T12:24:39.432Z,-1.65
2024-01-22T12:25:42.299Z,-1.63
2024-01-22T12:26:45.846Z,-1.59
2024-01-22T12:27:48.673Z,-1.53
2024-01-22T12:28:52.242Z,-1.46
2024-01-22T12:30:06.753Z,-1.44
2024-01-22T12:31:09.604Z,-1.41
2024-01-22T12:32:12.178Z,-1.38
2024-01-22T12:34:29.844Z,-1.23
2024-01-22T12:35:32.463Z,-1.33
2024-01-22T12:36:37.543Z,-1.30
2024-01-22T12:37:41.461Z,-1.30
2024-01-22T12:38:52.379Z,-1.32
2024-01-22T12:41:15.535Z,-1.27
2024-01-22T12:42:19.171Z,-1.39
2024-01-22T12:43:22.470Z,-1.38
2024-01-22T12:44:25.503Z,-1.36
2024-01-22T12:45:29.440Z,-1.33
2024-01-22T12:46:36.520Z,-1.29
2024-01-22T12:47:40.714Z,-1.28
2024-01-22T12:48:43.607Z,-1.30
2024-01-22T12:49:46.713Z,-1.31
2024-01-22T12:50:50.503Z,-1.32
2024-01-22T12:51:53.389Z,-1.32
2024-01-22T12:52:56.240Z,-1.33
2024-01-22T12:53:58.518Z,-1.33
2024-01-22T12:55:01.134Z,-1.33
2024-01-22T12:56:04.329Z,-1.32
2024-01-22T12:57:07.040Z,-1.30
2024-01-22T12:58:11.611Z,-1.28
2024-01-22T12:59:14.144Z,-1.28
2024-01-22T13:00:18.544Z,-1.28
2024-01-22T13:01:21.219Z,-1.29
2024-01-22T13:02:23.766Z,-1.29
2024-01-22T13:03:26.485Z,-1.31
2024-01-22T13:04:29.772Z,-1.32
2024-01-22T13:05:35.800Z,-1.32
2024-01-22T13:06:37.018Z,-1.34
2024-01-22T13:07:39.542Z,-1.37
2024-01-22T13:08:43.815Z,-1.39
2024-01-22T13:09:46.563Z,-1.39
2024-01-22T13:10:49.182Z,-1.39
2024-01-22T13:11:51.725Z,-1.37
2024-01-22T13:12:54.321Z,-1.32
2024-01-22T13:13:58.729Z,-1.26
2024-01-22T13:15:01.610Z,-1.22
2024-01-22T13:16:14.206Z,-1.16
2024-01-22T13:17:10.014Z,-1.09
2024-01-22T13:18:13.368Z,-1.07
2024-01-22T13:19:16.337Z,-1.07
2024-01-22T13:20:19.313Z,-1.07
2024-01-22T13:21:22.243Z,-1.11
2024-01-22T13:22:24.958Z,-1.13
2024-01-22T13:23:27.766Z,-1.14
2024-01-22T13:24:31.582Z,-1.14
2024-01-22T13:25:34.088Z,-1.14
2024-01-22T13:26:36.797Z,-1.14
2024-01-22T13:27:41.448Z,-1.16
2024-01-22T13:28:44.141Z,-1.16
2024-01-22T13:29:47.087Z,-1.20
2024-01-22T13:30:50.241Z,-1.23
2024-01-22T13:31:53.629Z,-1.26
2024-01-22T13:32:56.197Z,-1.27
2024-01-22T13:33:59.762Z,-1.32
2024-01-22T13:35:03.350Z,-1.39
2024-01-22T13:36:07.336Z,-1.45
2024-01-22T13:37:10.032Z,-1.48
2024-01-22T13:38:12.724Z,-1.51
2024-01-22T13:39:15.353Z,-1.54
2024-01-22T13:40:19.008Z,-1.54
2024-01-22T13:41:21.449Z,-1.55
2024-01-22T13:42:23.954Z,-1.55
2024-01-22T13:43:26.794Z,-1.57
2024-01-22T13:44:29.170Z,-1.55
2024-01-22T13:45:32.217Z,-1.54
2024-01-22T13:46:34.904Z,-1.52
2024-01-22T13:47:39.347Z,-1.50
2024-01-22T13:48:42.798Z,-1.49
2024-01-22T13:49:46.263Z,-1.48
2024-01-22T13:50:50.401Z,-1.50
2024-01-22T13:51:55.679Z,-1.49
2024-01-22T13:52:58.907Z,-1.48
2024-01-22T13:54:02.010Z,-1.48
2024-01-22T13:55:05.089Z,-1.47
2024-01-22T13:56:07.846Z,-1.47
2024-01-22T13:57:10.408Z,-1.46
2024-01-22T13:58:12.778Z,-1.49
2024-01-22T13:59:15.372Z,-1.49
2024-01-22T14:00:19.564Z,-1.52
2024-01-22T14:01:22.250Z,-1.53
2024-01-22T14:02:24.766Z,-1.55
2024-01-22T14:03:27.322Z,-1.53
2024-01-22T14:04:29.933Z,-1.52
2024-01-22T14:05:32.371Z,-1.56
2024-01-22T14:06:35.084Z,-1.57
2024-01-22T14:07:37.714Z,-1.58
2024-01-22T14:08:40.931Z,-1.60
2024-01-22T14:09:44.361Z,-1.58
2024-01-22T14:10:48.320Z,-1.55
2024-01-22T14:11:51.873Z,-1.55
2024-01-22T14:12:54.391Z,-1.52
2024-01-22T14:13:57.006Z,-1.52
2024-01-22T14:14:59.731Z,-1.53
2024-01-22T14:16:02.899Z,-1.55
2024-01-22T14:17:06.527Z,-1.56
2024-01-22T14:18:09.201Z,-1.54
2024-01-22T14:19:12.390Z,-1.54
2024-01-22T14:20:16.194Z,-1.55
2024-01-22T14:21:18.855Z,-1.56
2024-01-22T14:22:23.887Z,-1.64
2024-01-22T14:23:26.858Z,-1.69
2024-01-22T14:24:29.835Z,-1.71
2024-01-22T14:25:33.214Z,-1.72
2024-01-22T14:26:36.097Z,-1.72
2024-01-22T14:27:38.590Z,-1.75
2024-01-22T14:28:41.398Z,-1.80
2024-01-22T14:29:44.758Z,-1.80
2024-01-22T14:30:48.009Z,-1.82
2024-01-22T14:31:50.838Z,-1.82
2024-01-22T14:32:54.306Z,-1.78
2024-01-22T14:33:57.534Z,-1.77
2024-01-22T14:35:00.665Z,-1.77
2024-01-22T14:36:04.247Z,-1.75
2024-01-22T14:37:06.885Z,-1.77
2024-01-22T14:38:10.269Z,-1.77
2024-01-22T14:39:14.978Z,-1.76
2024-01-22T14:40:18.155Z,-1.76
2024-01-22T14:41:20.631Z,-1.74
2024-01-22T14:42:23.216Z,-1.73
2024-01-22T14:43:26.345Z,-1.72
2024-01-22T14:44:29.054Z,-1.70
2024-01-22T14:45:31.675Z,-1.71
2024-01-22T14:46:41.562Z,-1.69
2024-01-22T14:47:44.513Z,-1.68
2024-01-22T14:48:55.566Z,-1.70
2024-01-22T14:49:52.181Z,-1.70
2024-01-22T14:50:55.938Z,-1.71
2024-01-22T14:51:58.908Z,-1.71
2024-01-22T14:53:04.883Z,-1.71
2024-01-22T14:54:07.024Z,-1.69
2024-01-22T14:55:10.016Z,-1.68
2024-01-22T14:56:14.978Z,-1.68
2024-01-22T14:57:18.682Z,-1.66
2024-01-22T14:58:23.429Z,-1.65
2024-01-22T14:59:27.263Z,-1.65
2024-01-22T15:00:31.467Z,-1.69
2024-01-22T15:01:35.447Z,-1.70
2024-01-22T15:02:38.421Z,-1.72
2024-01-22T15:03:41.250Z,-1.73
2024-01-22T15:04:44.036Z,-1.74
2024-01-22T15:05:47.268Z,-1.73
2024-01-22T15:06:52.071Z,-1.74
2024-01-22T15:07:55.573Z,-1.72
2024-01-22T15:08:59.228Z,-1.72
2024-01-22T15:10:02.610Z,-1.71
2024-01-22T15:11:05.681Z,-1.72
2024-01-22T15:12:10.207Z,-1.73
2024-01-22T15:13:13.812Z,-1.72
2024-01-22T15:14:17.116Z,-1.72
2024-01-22T15:15:20.738Z,-1.70
2024-01-22T15:16:25.341Z,-1.68
2024-01-22T15:17:29.227Z,-1.66
2024-01-22T15:18:33.164Z,-1.63
2024-01-22T15:19:39.058Z,-1.58
2024-01-22T15:20:42.824Z,-1.59
2024-01-22T15:21:49.504Z,-1.61
2024-01-22T15:22:52.346Z,-1.64
2024-01-22T15:23:55.200Z,-1.65
2024-01-22T15:24:57.759Z,-1.65
2024-01-22T15:26:03.225Z,-1.67
2024-01-22T15:27:06.862Z,-1.66
2024-01-22T15:28:10.179Z,-1.68
2024-01-22T15:29:14.129Z,-1.69
2024-01-22T15:30:19.721Z,-1.69
2024-01-22T15:31:22.914Z,-1.69
2024-01-22T15:32:27.638Z,-1.66
2024-01-22T15:33:33.768Z,-1.66
2024-01-22T15:34:38.427Z,-1.65
2024-01-22T15:35:41.202Z,-1.65
2024-01-22T15:36:44.365Z,-1.64
2024-01-22T15:37:47.682Z,-1.65
2024-01-22T15:38:51.678Z,-1.64
2024-01-22T15:39:55.645Z,-1.65
2024-01-22T15:40:59.610Z,-1.63
2024-01-22T15:42:03.187Z,-1.61
2024-01-22T15:43:07.453Z,-1.61
2024-01-22T15:44:11.237Z,-1.59
2024-01-22T15:45:16.045Z,-1.56
2024-01-22T15:46:21.762Z,-1.56
2024-01-22T15:47:24.267Z,-1.54
2024-01-22T15:48:28.782Z,-1.55
2024-01-22T15:49:32.837Z,-1.53
2024-01-22T15:50:38.915Z,-1.51
2024-01-22T15:51:44.810Z,-1.51
2024-01-22T15:52:47.571Z,-1.51
2024-01-22T15:53:50.533Z,-1.53
2024-01-22T15:54:53.057Z,-1.51
2024-01-22T15:55:55.561Z,-1.52
2024-01-22T15:56:58.377Z,-1.52
2024-01-22T15:58:00.813Z,-1.53
2024-01-22T15:59:03.260Z,-1.54
2024-01-22T16:00:07.058Z,-1.55
2024-01-22T16:01:14.095Z,-1.58
2024-01-22T16:02:16.902Z,-1.64
2024-01-22T16:03:19.785Z,-1.66
2024-01-22T16:04:22.400Z,-1.68
2024-01-22T16:05:25.113Z,-1.72
2024-01-22T16:06:28.643Z,-1.75
2024-01-22T16:07:31.265Z,-1.75
2024-01-22T16:08:34.093Z,-1.74
2024-01-22T16:09:43.066Z,-1.73
2024-01-22T16:10:47.471Z,-1.72
2024-01-22T16:11:49.973Z,-1.70
2024-01-22T16:12:52.513Z,-1.69
2024-01-22T16:13:55.060Z,-1.70
2024-01-22T16:14:57.554Z,-1.68
2024-01-22T16:16:00.119Z,-1.68
2024-01-22T16:17:02.695Z,-1.69
2024-01-22T16:18:05.690Z,-1.70
2024-01-22T16:19:16.717Z,-1.70
2024-01-22T16:20:18.650Z,-1.72
2024-01-22T16:21:21.326Z,-1.73
2024-01-22T16:22:23.700Z,-1.76
2024-01-22T16:23:26.267Z,-1.74
2024-01-22T16:24:29.107Z,-1.74
2024-01-22T16:25:31.711Z,-1.77
2024-01-22T16:26:34.379Z,-1.83
2024-01-22T16:27:36.966Z,-1.86
2024-01-22T16:28:39.332Z,-1.86
2024-01-22T16:29:42.319Z,-1.84
2024-01-22T16:30:45.102Z,-1.89
2024-01-22T16:31:48.144Z,-1.91
2024-01-22T16:32:51.332Z,-1.93
2024-01-22T16:33:54.065Z,-1.92
2024-01-22T16:34:57.038Z,-1.95
2024-01-22T16:35:59.454Z,-1.98
2024-01-22T16:37:01.906Z,-1.98
2024-01-22T16:38:04.598Z,-1.97
2024-01-22T16:39:07.751Z,-1.95
2024-01-22T16:40:11.902Z,-1.97
2024-01-22T16:41:19.016Z,-1.98
2024-01-22T16:42:21.256Z,-2.00
2024-01-22T16:43:23.638Z,-2.03
2024-01-22T16:44:26.014Z,-2.05
2024-01-22T16:45:28.470Z,-2.05
2024-01-22T16:46:33.391Z,-2.06
2024-01-22T16:47:35.968Z,-2.07
2024-01-22T16:48:38.525Z,-2.07
2024-01-22T16:49:42.792Z,-2.07
2024-01-22T16:50:45.652Z,-2.07
2024-01-22T16:51:47.977Z,-2.04
2024-01-22T16:52:50.635Z,-2.02
2024-01-22T16:53:53.014Z,-2.01
2024-01-22T16:54:55.254Z,-2.00
2024-01-22T16:55:57.680Z,-1.98
2024-01-22T16:57:00.833Z,-1.96
2024-01-22T16:58:03.465Z,-1.96
2024-01-22T16:59:05.859Z,-1.97
2024-01-22T17:00:10.061Z,-1.96
2024-01-22T17:01:14.109Z,-1.96
2024-01-22T17:02:17.330Z,-1.97
2024-01-22T17:03:19.952Z,-1.97
2024-01-22T17:04:23.839Z,-1.99
2024-01-22T17:05:26.767Z,-1.99
2024-01-22T17:06:29.370Z,-2.01
2024-01-22T17:07:31.657Z,-1.98
2024-01-22T17:08:34.079Z,-1.99
2024-01-22T17:09:37.144Z,-1.99
2024-01-22T17:10:40.371Z,-1.99
2024-01-22T17:11:43.905Z,-2.01
2024-01-22T17:12:46.270Z,-2.03
2024-01-22T17:13:49.402Z,-2.02
2024-01-22T17:14:52.024Z,-2.07
2024-01-22T17:15:54.482Z,-2.08
2024-01-22T17:16:57.142Z,-2.09
2024-01-22T17:17:59.678Z,-2.10
2024-01-22T17:19:02.154Z,-2.10
2024-01-22T17:20:06.489Z,-2.12
2024-01-22T17:21:09.160Z,-2.12
2024-01-22T17:22:11.826Z,-2.10
2024-01-22T17:23:14.310Z,-2.08
2024-01-22T17:24:17.096Z,-2.06
2024-01-22T17:25:19.638Z,-2.06
2024-01-22T17:26:22.716Z,-2.03
2024-01-22T17:27:25.341Z,-2.03
2024-01-22T17:28:28.482Z,-2.03
2024-01-22T17:29:31.032Z,-2.06
2024-01-22T17:30:33.970Z,-2.07
2024-01-22T17:31:38.913Z,-2.09
2024-01-22T17:32:41.568Z,-2.11
2024-01-22T17:33:44.520Z,-2.09
2024-01-22T17:34:47.336Z,-2.07
2024-01-22T17:35:50.244Z,-2.08
2024-01-22T17:36:54.113Z,-2.09
2024-01-22T17:37:56.880Z,-2.09
2024-01-22T17:38:59.709Z,-2.08
2024-01-22T17:40:02.523Z,-2.07
2024-01-22T17:41:05.266Z,-2.08
2024-01-22T17:42:08.060Z,-2.07
2024-01-22T17:43:10.445Z,-2.08
2024-01-22T17:44:12.999Z,-2.08
2024-01-22T17:45:15.594Z,-2.07
2024-01-22T17:46:18.953Z,-2.06
2024-01-22T17:47:21.320Z,-2.04
2024-01-22T17:48:23.880Z,-2.03
2024-01-22T17:49:26.438Z,-2.04
2024-01-22T17:50:29.228Z,-2.03
2024-01-22T17:51:31.775Z,-2.03
2024-01-22T17:52:34.369Z,-2.02
2024-01-22T17:53:36.834Z,-2.03
2024-01-22T17:54:39.297Z,-2.05
2024-01-22T17:55:41.651Z,-2.07
2024-01-22T17:56:44.730Z,-2.07
2024-01-22T17:57:47.542Z,-2.07
2024-01-22T17:58:50.066Z,-2.09
2024-01-22T17:59:52.556Z,-2.10
2024-01-22T18:00:55.181Z,-2.08
2024-01-22T18:01:58.079Z,-2.06
2024-01-22T18:03:00.570Z,-2.06
2024-01-22T18:04:03.233Z,-2.04
2024-01-22T18:05:06.109Z,-2.03
2024-01-22T18:06:09.445Z,-2.02
2024-01-22T18:07:12.292Z,-2.01
2024-01-22T18:08:14.718Z,-1.99
2024-01-22T18:09:17.397Z,-1.98
2024-01-22T18:10:20.576Z,-2.00
2024-01-22T18:11:23.139Z,-1.99
2024-01-22T18:12:25.616Z,-1.98
2024-01-22T18:13:28.672Z,-1.97
2024-01-22T18:14:31.139Z,-1.95
2024-01-22T18:15:33.649Z,-1.94
2024-01-22T18:16:36.651Z,-1.94
2024-01-22T18:17:39.177Z,-1.95
2024-01-22T18:18:41.717Z,-1.95
2024-01-22T18:19:44.513Z,-1.94
2024-01-22T18:20:47.404Z,-1.93
2024-01-22T18:21:49.934Z,-1.91
2024-01-22T18:22:52.361Z,-1.91
2024-01-22T18:23:54.850Z,-1.90
2024-01-22T18:24:57.419Z,-1.89
2024-01-22T18:27:09.757Z,-1.77
2024-01-22T18:28:12.292Z,-1.90
2024-01-22T18:29:14.783Z,-1.88
2024-01-22T18:30:20.063Z,-1.88
2024-01-22T18:31:22.502Z,-1.87
2024-01-22T18:32:24.818Z,-1.87
2024-01-22T18:33:27.456Z,-1.87
2024-01-22T18:34:30.081Z,-1.87
2024-01-22T18:35:32.510Z,-1.88
2024-01-22T18:36:35.301Z,-1.89
2024-01-22T18:37:37.853Z,-1.91
2024-01-22T18:38:40.213Z,-1.93
2024-01-22T18:39:42.442Z,-1.91
2024-01-22T18:40:45.142Z,-1.92
2024-01-22T18:41:48.168Z,-1.93
2024-01-22T18:42:50.789Z,-1.93
2024-01-22T18:43:53.872Z,-1.93
2024-01-22T18:44:56.369Z,-1.92
2024-01-22T18:46:01.518Z,-1.92
2024-01-22T18:47:03.100Z,-1.90
2024-01-22T18:48:05.944Z,-1.90
2024-01-22T18:49:08.838Z,-1.89
2024-01-22T18:50:12.855Z,-1.89
2024-01-22T18:51:15.653Z,-1.87
2024-01-22T18:52:18.192Z,-1.84
2024-01-22T18:53:20.556Z,-1.81
2024-01-22T18:54:23.085Z,-1.79
2024-01-22T18:55:27.532Z,-1.78
2024-01-22T18:56:30.721Z,-1.80
2024-01-22T18:57:33.319Z,-1.82
2024-01-22T18:58:35.948Z,-1.81
2024-01-22T18:59:38.524Z,-1.78
2024-01-22T19:00:41.861Z,-1.77
2024-01-22T19:01:48.877Z,-1.77
2024-01-22T19:02:53.397Z,-1.78
2024-01-22T19:03:55.780Z,-1.80
2024-01-22T19:04:58.350Z,-1.78
2024-01-22T19:06:00.823Z,-1.80
2024-01-22T19:07:03.308Z,-1.80
2024-01-22T19:08:07.646Z,-1.82
2024-01-22T19:09:10.224Z,-1.82
2024-01-22T19:10:13.093Z,-1.84
2024-01-22T19:11:15.573Z,-1.84
2024-01-22T19:12:19.784Z,-1.83
2024-01-22T19:13:22.240Z,-1.86
2024-01-22T19:14:26.384Z,-1.86
2024-01-22T19:15:30.046Z,-1.84
2024-01-22T19:16:32.798Z,-1.85
2024-01-22T19:17:35.172Z,-1.86
2024-01-22T19:18:37.523Z,-1.87
2024-01-22T19:19:39.893Z,-1.86
2024-01-22T19:20:42.769Z,-1.86
2024-01-22T19:21:45.016Z,-1.86
2024-01-22T19:22:47.479Z,-1.83
2024-01-22T19:23:50.898Z,-1.82
2024-01-22T19:24:53.601Z,-1.83
2024-01-22T19:25:55.915Z,-1.83
2024-01-22T19:27:00.783Z,-1.84
2024-01-22T19:28:03.766Z,-1.83
2024-01-22T19:29:06.167Z,-1.82
2024-01-22T19:30:10.105Z,-1.83
2024-01-22T19:31:12.629Z,-1.81
2024-01-22T19:32:14.884Z,-1.80
2024-01-22T19:33:17.501Z,-1.77
2024-01-22T19:34:20.471Z,-1.80
2024-01-22T19:35:22.864Z,-1.78
2024-01-22T19:36:26.263Z,-1.78
2024-01-22T19:37:28.704Z,-1.78
2024-01-22T19:38:31.063Z,-1.77
2024-01-22T19:39:33.528Z,-1.77
2024-01-22T19:40:36.387Z,-1.74